KLGA/LGA METAR and TAF weather

Enter ICAO airport designator
Station Type Date Time Source
KLGA METAR 2019/06/27 03:51 UTC NOAA

KLGA 270351Z 00000KT 10SM FEW250 26/18 A3003 RMK AO2 SLP169 T02610178 $


Station Type Date Time Source
KLGA Decoded METAR 2019/06/27 03:51 UTC NOAA

NEW YORK LA GUARDIA AIRPORT , NY, United States (KLGA) 40-47N 73-53W 11M
Jun 26, 2019 - 11:51 PM EDT / 2019.06.27 0351 UTC
Wind: Calm:0
Visibility: 10 mile(s):0
Sky conditions: mostly clear
Temperature: 79.0 F (26.1 C)
Dew Point: 64.0 F (17.8 C)
Relative Humidity: 60%
Pressure (altimeter): 30.03 in. Hg (1016 hPa)
ob: KLGA 270351Z 00000KT 10SM FEW250 26/18 A3003 RMK AO2 SLP169 T02610178
cycle: 4

Station Type Date Time Source
KLGA TAF 2019/06/27 02:30 UTC NOAA

TAF
AMD KLGA 270229Z 2702/2806 VRB05KT P6SM SCT060 BKN250
FM270500 35005KT P6SM SCT250
FM271500 34008KT P6SM FEW250
FM272000 19008KT P6SM FEW250
FM280300 22005KT P6SM FEW250

Example: see airport list